Spillimacheen, Canada
Current Conditions -  °F | °C
As of 8:00 AM on Monday 24 Nov 2014 (Local Time) from CYGE Reporting Station
Haze Haze  
Wind Chill: 27°   Ceiling: 2500
Heat Index: 27°   Visibility: 3mi
Dew Point: 25°   Wind: 2mph
Humidity: 93%   Direction: NA
Pressure: 30.2"   Gusts: NA
Location:  50.9°N, 116.37°W
Report Text: CYGE 241500Z VRB02KT 3SM BR OVC025 M03/M04 A3020 RMK FG6SC2 VIS VRB 2-4 SLP264
Loading
Personal Weather Stations






























Interactive Weather Map New forecast layout! Learn more

10-Day Weather Forecast

Advertisements
Track Severe Weather on mobile